sensor_id;sensor_type;location;lat;lon;timestamp;P1;durP1;ratioP1;P2;durP2;ratioP2
2177;SDS011;1095;50.992;6.798;2023-04-03T00:00:18;12.93;;;9.02;;
2177;SDS011;1095;50.992;6.798;2023-04-03T00:02:45;11.15;;;8.55;;
2177;SDS011;1095;50.992;6.798;2023-04-03T00:05:12;12.27;;;8.75;;
2177;SDS011;1095;50.992;6.798;2023-04-03T00:07:42;12.70;;;9.15;;
2177;SDS011;1095;50.992;6.798;2023-04-03T00:10:09;15.05;;;9.65;;
2177;SDS011;1095;50.992;6.798;2023-04-03T00:12:36;15.98;;;9.57;;
2177;SDS011;1095;50.992;6.798;2023-04-03T00:15:03;12.63;;;9.15;;
2177;SDS011;1095;50.992;6.798;2023-04-03T00:17:34;13.38;;;9.65;;
2177;SDS011;1095;50.992;6.798;2023-04-03T00:20:01;12.43;;;9.73;;
2177;SDS011;1095;50.992;6.798;2023-04-03T00:22:28;11.65;;;9.63;;
2177;SDS011;1095;50.992;6.798;2023-04-03T00:24:56;14.18;;;9.30;;
2177;SDS011;1095;50.992;6.798;2023-04-03T00:27:23;18.55;;;9.80;;
2177;SDS011;1095;50.992;6.798;2023-04-03T00:29:50;12.55;;;9.63;;
2177;SDS011;1095;50.992;6.798;2023-04-03T00:32:19;12.45;;;9.65;;
2177;SDS011;1095;50.992;6.798;2023-04-03T00:34:46;12.88;;;10.10;;
2177;SDS011;1095;50.992;6.798;2023-04-03T00:37:13;14.90;;;10.20;;
2177;SDS011;1095;50.992;6.798;2023-04-03T00:39:39;13.15;;;10.43;;
2177;SDS011;1095;50.992;6.798;2023-04-03T00:42:08;15.40;;;10.70;;
2177;SDS011;1095;50.992;6.798;2023-04-03T00:47:53;12.95;;;10.15;;
2177;SDS011;1095;50.992;6.798;2023-04-03T00:50:21;12.05;;;10.50;;
2177;SDS011;1095;50.992;6.798;2023-04-03T00:52:48;11.07;;;9.32;;
2177;SDS011;1095;50.992;6.798;2023-04-03T00:55:15;12.32;;;10.27;;
2177;SDS011;1095;50.992;6.798;2023-04-03T00:57:44;13.73;;;9.95;;
2177;SDS011;1095;50.992;6.798;2023-04-03T01:00:14;15.38;;;10.73;;
2177;SDS011;1095;50.992;6.798;2023-04-03T01:02:44;10.57;;;9.20;;
2177;SDS011;1095;50.992;6.798;2023-04-03T01:05:11;14.10;;;9.48;;
2177;SDS011;1095;50.992;6.798;2023-04-03T01:07:40;12.55;;;9.77;;
2177;SDS011;1095;50.992;6.798;2023-04-03T01:10:08;14.98;;;9.93;;
2177;SDS011;1095;50.992;6.798;2023-04-03T01:12:38;13.48;;;10.15;;
2177;SDS011;1095;50.992;6.798;2023-04-03T01:15:09;14.88;;;10.23;;
2177;SDS011;1095;50.992;6.798;2023-04-03T01:17:38;12.73;;;10.45;;
2177;SDS011;1095;50.992;6.798;2023-04-03T01:20:14;13.45;;;10.65;;
2177;SDS011;1095;50.992;6.798;2023-04-03T01:23:03;15.10;;;10.13;;
2177;SDS011;1095;50.992;6.798;2023-04-03T01:25:39;14.85;;;11.65;;
2177;SDS011;1095;50.992;6.798;2023-04-03T01:28:08;13.27;;;10.98;;
2177;SDS011;1095;50.992;6.798;2023-04-03T01:30:39;14.68;;;11.52;;
2177;SDS011;1095;50.992;6.798;2023-04-03T01:33:11;17.95;;;11.38;;
2177;SDS011;1095;50.992;6.798;2023-04-03T01:35:37;14.93;;;11.98;;
2177;SDS011;1095;50.992;6.798;2023-04-03T01:38:04;15.30;;;11.30;;
2177;SDS011;1095;50.992;6.798;2023-04-03T01:40:31;13.70;;;11.52;;
2177;SDS011;1095;50.992;6.798;2023-04-03T01:42:57;16.63;;;12.68;;
2177;SDS011;1095;50.992;6.798;2023-04-03T01:45:24;16.27;;;12.20;;
2177;SDS011;1095;50.992;6.798;2023-04-03T01:47:51;17.40;;;12.95;;
2177;SDS011;1095;50.992;6.798;2023-04-03T01:50:19;22.38;;;13.88;;
2177;SDS011;1095;50.992;6.798;2023-04-03T01:52:46;18.92;;;13.13;;
2177;SDS011;1095;50.992;6.798;2023-04-03T01:55:12;17.58;;;12.52;;
2177;SDS011;1095;50.992;6.798;2023-04-03T01:57:40;17.50;;;13.27;;
2177;SDS011;1095;50.992;6.798;2023-04-03T02:00:07;18.58;;;13.18;;
2177;SDS011;1095;50.992;6.798;2023-04-03T02:02:34;17.13;;;13.13;;
2177;SDS011;1095;50.992;6.798;2023-04-03T02:05:01;16.98;;;13.65;;
2177;SDS011;1095;50.992;6.798;2023-04-03T02:07:29;15.82;;;13.15;;
2177;SDS011;1095;50.992;6.798;2023-04-03T02:09:56;20.65;;;13.48;;
2177;SDS011;1095;50.992;6.798;2023-04-03T02:12:22;17.77;;;12.93;;
2177;SDS011;1095;50.992;6.798;2023-04-03T02:14:49;16.60;;;13.07;;
2177;SDS011;1095;50.992;6.798;2023-04-03T02:17:16;17.92;;;13.77;;
2177;SDS011;1095;50.992;6.798;2023-04-03T02:19:43;18.27;;;13.45;;
2177;SDS011;1095;50.992;6.798;2023-04-03T02:22:09;20.48;;;13.98;;
2177;SDS011;1095;50.992;6.798;2023-04-03T02:24:37;17.80;;;13.50;;
2177;SDS011;1095;50.992;6.798;2023-04-03T02:27:05;18.65;;;13.35;;
2177;SDS011;1095;50.992;6.798;2023-04-03T02:29:32;17.13;;;13.45;;
2177;SDS011;1095;50.992;6.798;2023-04-03T02:31:58;20.25;;;14.95;;
2177;SDS011;1095;50.992;6.798;2023-04-03T02:34:25;19.27;;;13.50;;
2177;SDS011;1095;50.992;6.798;2023-04-03T02:36:52;17.63;;;13.68;;
2177;SDS011;1095;50.992;6.798;2023-04-03T02:39:18;17.42;;;12.73;;
2177;SDS011;1095;50.992;6.798;2023-04-03T02:41:46;18.88;;;13.73;;
2177;SDS011;1095;50.992;6.798;2023-04-03T02:44:13;16.60;;;13.43;;
2177;SDS011;1095;50.992;6.798;2023-04-03T02:46:40;18.15;;;14.35;;
2177;SDS011;1095;50.992;6.798;2023-04-03T02:49:06;19.17;;;13.82;;
2177;SDS011;1095;50.992;6.798;2023-04-03T02:51:33;17.60;;;14.13;;
2177;SDS011;1095;50.992;6.798;2023-04-03T02:54:00;19.20;;;13.43;;
2177;SDS011;1095;50.992;6.798;2023-04-03T02:56:27;17.20;;;13.57;;
2177;SDS011;1095;50.992;6.798;2023-04-03T02:58:55;23.05;;;13.63;;
2177;SDS011;1095;50.992;6.798;2023-04-03T03:01:21;19.10;;;13.20;;
2177;SDS011;1095;50.992;6.798;2023-04-03T03:03:48;17.13;;;13.10;;
2177;SDS011;1095;50.992;6.798;2023-04-03T03:06:15;16.67;;;12.73;;
2177;SDS011;1095;50.992;6.798;2023-04-03T03:08:43;17.90;;;13.13;;
2177;SDS011;1095;50.992;6.798;2023-04-03T03:11:10;16.30;;;12.45;;
2177;SDS011;1095;50.992;6.798;2023-04-03T03:13:37;17.80;;;12.32;;
2177;SDS011;1095;50.992;6.798;2023-04-03T03:16:05;22.10;;;12.13;;
2177;SDS011;1095;50.992;6.798;2023-04-03T03:18:33;17.58;;;12.48;;
2177;SDS011;1095;50.992;6.798;2023-04-03T03:21:00;17.58;;;12.40;;
2177;SDS011;1095;50.992;6.798;2023-04-03T03:23:29;15.40;;;12.25;;
2177;SDS011;1095;50.992;6.798;2023-04-03T03:25:59;17.05;;;11.30;;
2177;SDS011;1095;50.992;6.798;2023-04-03T03:28:26;18.05;;;12.38;;
2177;SDS011;1095;50.992;6.798;2023-04-03T03:30:53;15.88;;;12.27;;
2177;SDS011;1095;50.992;6.798;2023-04-03T03:33:21;15.48;;;12.07;;
2177;SDS011;1095;50.992;6.798;2023-04-03T03:35:48;17.35;;;11.75;;
2177;SDS011;1095;50.992;6.798;2023-04-03T03:38:15;17.98;;;12.35;;
2177;SDS011;1095;50.992;6.798;2023-04-03T03:40:42;16.38;;;12.07;;
2177;SDS011;1095;50.992;6.798;2023-04-03T03:43:08;17.83;;;12.00;;
2177;SDS011;1095;50.992;6.798;2023-04-03T03:45:35;16.67;;;11.98;;
2177;SDS011;1095;50.992;6.798;2023-04-03T03:48:02;17.23;;;12.23;;
2177;SDS011;1095;50.992;6.798;2023-04-03T03:50:31;18.95;;;11.52;;
2177;SDS011;1095;50.992;6.798;2023-04-03T03:52:57;16.85;;;11.95;;
2177;SDS011;1095;50.992;6.798;2023-04-03T03:55:24;18.17;;;12.23;;
2177;SDS011;1095;50.992;6.798;2023-04-03T03:57:51;15.07;;;11.65;;
2177;SDS011;1095;50.992;6.798;2023-04-03T04:00:17;16.30;;;12.02;;
2177;SDS011;1095;50.992;6.798;2023-04-03T04:02:44;19.30;;;12.15;;
2177;SDS011;1095;50.992;6.798;2023-04-03T04:05:11;16.95;;;11.38;;
2177;SDS011;1095;50.992;6.798;2023-04-03T04:07:39;16.00;;;11.80;;
2177;SDS011;1095;50.992;6.798;2023-04-03T04:10:06;16.35;;;11.32;;
2177;SDS011;1095;50.992;6.798;2023-04-03T04:12:34;20.38;;;12.30;;
2177;SDS011;1095;50.992;6.798;2023-04-03T04:15:01;15.80;;;10.70;;
2177;SDS011;1095;50.992;6.798;2023-04-03T04:17:28;17.70;;;10.95;;
2177;SDS011;1095;50.992;6.798;2023-04-03T04:19:55;15.52;;;11.10;;
2177;SDS011;1095;50.992;6.798;2023-04-03T04:22:21;17.55;;;10.43;;
2177;SDS011;1095;50.992;6.798;2023-04-03T04:24:49;16.38;;;11.48;;
2177;SDS011;1095;50.992;6.798;2023-04-03T04:27:16;14.80;;;10.57;;
2177;SDS011;1095;50.992;6.798;2023-04-03T04:29:43;14.77;;;11.02;;
2177;SDS011;1095;50.992;6.798;2023-04-03T04:32:09;13.35;;;10.65;;
2177;SDS011;1095;50.992;6.798;2023-04-03T04:34:36;15.35;;;10.60;;
2177;SDS011;1095;50.992;6.798;2023-04-03T04:37:02;13.57;;;9.98;;
2177;SDS011;1095;50.992;6.798;2023-04-03T04:39:29;14.43;;;10.75;;
2177;SDS011;1095;50.992;6.798;2023-04-03T04:41:57;17.08;;;11.00;;
2177;SDS011;1095;50.992;6.798;2023-04-03T04:44:24;14.70;;;10.32;;
2177;SDS011;1095;50.992;6.798;2023-04-03T04:46:51;15.00;;;9.52;;
2177;SDS011;1095;50.992;6.798;2023-04-03T04:49:17;15.00;;;10.00;;
2177;SDS011;1095;50.992;6.798;2023-04-03T04:51:44;13.45;;;9.73;;
2177;SDS011;1095;50.992;6.798;2023-04-03T04:54:11;15.32;;;9.60;;
2177;SDS011;1095;50.992;6.798;2023-04-03T04:56:37;14.30;;;10.18;;
2177;SDS011;1095;50.992;6.798;2023-04-03T04:59:05;17.00;;;11.52;;
2177;SDS011;1095;50.992;6.798;2023-04-03T05:01:32;15.55;;;10.25;;
2177;SDS011;1095;50.992;6.798;2023-04-03T05:03:59;12.80;;;9.60;;
2177;SDS011;1095;50.992;6.798;2023-04-03T05:06:25;14.85;;;9.88;;
2177;SDS011;1095;50.992;6.798;2023-04-03T05:08:52;15.27;;;9.77;;
2177;SDS011;1095;50.992;6.798;2023-04-03T05:11:20;12.73;;;9.40;;
2177;SDS011;1095;50.992;6.798;2023-04-03T05:13:48;15.50;;;9.88;;
2177;SDS011;1095;50.992;6.798;2023-04-03T05:16:16;14.38;;;9.73;;
2177;SDS011;1095;50.992;6.798;2023-04-03T05:18:43;15.40;;;8.40;;
2177;SDS011;1095;50.992;6.798;2023-04-03T05:21:10;12.85;;;9.00;;
2177;SDS011;1095;50.992;6.798;2023-04-03T05:23:36;12.90;;;8.20;;
2177;SDS011;1095;50.992;6.798;2023-04-03T05:26:03;13.70;;;9.38;;
2177;SDS011;1095;50.992;6.798;2023-04-03T05:28:30;10.98;;;8.52;;
2177;SDS011;1095;50.992;6.798;2023-04-03T05:30:57;13.57;;;8.73;;
2177;SDS011;1095;50.992;6.798;2023-04-03T05:33:26;17.23;;;8.98;;
2177;SDS011;1095;50.992;6.798;2023-04-03T05:35:53;13.82;;;8.50;;
2177;SDS011;1095;50.992;6.798;2023-04-03T05:38:20;13.98;;;8.85;;
2177;SDS011;1095;50.992;6.798;2023-04-03T05:40:47;13.38;;;8.80;;
2177;SDS011;1095;50.992;6.798;2023-04-03T05:43:14;15.40;;;8.10;;
2177;SDS011;1095;50.992;6.798;2023-04-03T05:45:41;12.63;;;9.23;;
2177;SDS011;1095;50.992;6.798;2023-04-03T05:48:08;14.07;;;8.88;;
2177;SDS011;1095;50.992;6.798;2023-04-03T05:50:36;12.75;;;7.85;;
2177;SDS011;1095;50.992;6.798;2023-04-03T05:53:06;14.95;;;9.00;;
2177;SDS011;1095;50.992;6.798;2023-04-03T05:55:38;16.90;;;8.80;;
2177;SDS011;1095;50.992;6.798;2023-04-03T05:58:05;17.63;;;8.15;;
2177;SDS011;1095;50.992;6.798;2023-04-03T06:00:32;11.80;;;8.27;;
2177;SDS011;1095;50.992;6.798;2023-04-03T06:02:59;12.05;;;8.05;;
2177;SDS011;1095;50.992;6.798;2023-04-03T06:05:25;15.13;;;7.97;;
2177;SDS011;1095;50.992;6.798;2023-04-03T06:07:54;13.70;;;7.70;;
2177;SDS011;1095;50.992;6.798;2023-04-03T06:10:22;11.95;;;7.07;;
2177;SDS011;1095;50.992;6.798;2023-04-03T06:12:48;9.07;;;6.55;;
2177;SDS011;1095;50.992;6.798;2023-04-03T06:15:15;10.05;;;6.25;;
2177;SDS011;1095;50.992;6.798;2023-04-03T06:17:42;12.00;;;6.88;;
2177;SDS011;1095;50.992;6.798;2023-04-03T06:20:12;10.48;;;6.85;;
2177;SDS011;1095;50.992;6.798;2023-04-03T06:22:39;9.18;;;6.63;;
2177;SDS011;1095;50.992;6.798;2023-04-03T06:25:08;11.80;;;6.65;;
2177;SDS011;1095;50.992;6.798;2023-04-03T06:27:35;10.00;;;5.88;;
2177;SDS011;1095;50.992;6.798;2023-04-03T06:30:03;10.95;;;5.85;;
2177;SDS011;1095;50.992;6.798;2023-04-03T06:32:30;9.70;;;5.68;;
2177;SDS011;1095;50.992;6.798;2023-04-03T06:34:57;11.20;;;4.88;;
2177;SDS011;1095;50.992;6.798;2023-04-03T06:37:24;7.82;;;4.75;;
2177;SDS011;1095;50.992;6.798;2023-04-03T06:39:54;7.72;;;4.40;;
2177;SDS011;1095;50.992;6.798;2023-04-03T06:42:22;9.82;;;4.93;;
2177;SDS011;1095;50.992;6.798;2023-04-03T06:44:50;11.82;;;4.57;;
2177;SDS011;1095;50.992;6.798;2023-04-03T06:47:16;8.93;;;4.57;;
2177;SDS011;1095;50.992;6.798;2023-04-03T06:49:44;10.50;;;4.78;;
2177;SDS011;1095;50.992;6.798;2023-04-03T06:52:13;5.60;;;4.35;;
2177;SDS011;1095;50.992;6.798;2023-04-03T06:54:40;9.38;;;4.50;;
2177;SDS011;1095;50.992;6.798;2023-04-03T06:57:07;12.50;;;4.47;;
2177;SDS011;1095;50.992;6.798;2023-04-03T06:59:35;10.77;;;4.32;;
2177;SDS011;1095;50.992;6.798;2023-04-03T07:02:02;6.30;;;4.32;;
2177;SDS011;1095;50.992;6.798;2023-04-03T07:04:29;7.65;;;4.13;;
2177;SDS011;1095;50.992;6.798;2023-04-03T07:06:56;7.95;;;4.10;;
2177;SDS011;1095;50.992;6.798;2023-04-03T07:09:27;10.00;;;3.63;;
2177;SDS011;1095;50.992;6.798;2023-04-03T07:12:04;9.00;;;4.22;;
2177;SDS011;1095;50.992;6.798;2023-04-03T07:14:38;7.97;;;4.25;;
2177;SDS011;1095;50.992;6.798;2023-04-03T07:17:10;7.63;;;4.13;;
2177;SDS011;1095;50.992;6.798;2023-04-03T07:19:38;6.88;;;4.00;;
2177;SDS011;1095;50.992;6.798;2023-04-03T07:22:05;7.75;;;4.30;;
2177;SDS011;1095;50.992;6.798;2023-04-03T07:24:36;13.40;;;5.88;;
2177;SDS011;1095;50.992;6.798;2023-04-03T07:27:03;7.00;;;3.92;;
2177;SDS011;1095;50.992;6.798;2023-04-03T07:29:30;7.20;;;3.45;;
2177;SDS011;1095;50.992;6.798;2023-04-03T07:32:01;6.65;;;3.88;;
2177;SDS011;1095;50.992;6.798;2023-04-03T07:34:29;7.95;;;3.95;;
2177;SDS011;1095;50.992;6.798;2023-04-03T07:36:57;11.40;;;3.90;;
2177;SDS011;1095;50.992;6.798;2023-04-03T07:39:24;10.25;;;5.50;;
2177;SDS011;1095;50.992;6.798;2023-04-03T07:41:53;8.32;;;4.00;;
2177;SDS011;1095;50.992;6.798;2023-04-03T07:44:20;6.30;;;3.60;;
2177;SDS011;1095;50.992;6.798;2023-04-03T07:46:47;8.95;;;4.30;;
2177;SDS011;1095;50.992;6.798;2023-04-03T07:49:17;6.75;;;3.53;;
2177;SDS011;1095;50.992;6.798;2023-04-03T07:51:44;8.27;;;3.80;;
2177;SDS011;1095;50.992;6.798;2023-04-03T07:54:14;7.07;;;3.65;;
2177;SDS011;1095;50.992;6.798;2023-04-03T07:56:41;7.90;;;3.90;;
2177;SDS011;1095;50.992;6.798;2023-04-03T07:59:10;4.72;;;3.10;;
2177;SDS011;1095;50.992;6.798;2023-04-03T08:01:39;7.13;;;3.80;;
2177;SDS011;1095;50.992;6.798;2023-04-03T08:04:06;8.02;;;3.30;;
2177;SDS011;1095;50.992;6.798;2023-04-03T08:06:34;8.40;;;3.42;;
2177;SDS011;1095;50.992;6.798;2023-04-03T08:09:01;7.50;;;3.47;;
2177;SDS011;1095;50.992;6.798;2023-04-03T08:11:29;7.75;;;3.40;;
2177;SDS011;1095;50.992;6.798;2023-04-03T08:13:56;5.25;;;3.28;;
2177;SDS011;1095;50.992;6.798;2023-04-03T08:16:23;7.90;;;3.95;;
2177;SDS011;1095;50.992;6.798;2023-04-03T08:18:51;5.78;;;3.70;;
2177;SDS011;1095;50.992;6.798;2023-04-03T08:21:18;6.25;;;3.40;;
2177;SDS011;1095;50.992;6.798;2023-04-03T08:23:47;5.05;;;3.15;;
2177;SDS011;1095;50.992;6.798;2023-04-03T08:26:18;5.35;;;3.28;;
2177;SDS011;1095;50.992;6.798;2023-04-03T08:28:47;8.60;;;4.23;;
2177;SDS011;1095;50.992;6.798;2023-04-03T08:31:15;6.00;;;2.75;;
2177;SDS011;1095;50.992;6.798;2023-04-03T08:33:43;5.00;;;2.92;;
2177;SDS011;1095;50.992;6.798;2023-04-03T08:36:16;6.35;;;3.20;;
2177;SDS011;1095;50.992;6.798;2023-04-03T08:38:45;6.85;;;3.15;;
2177;SDS011;1095;50.992;6.798;2023-04-03T08:41:14;7.38;;;3.00;;
2177;SDS011;1095;50.992;6.798;2023-04-03T08:43:51;5.70;;;3.05;;
2177;SDS011;1095;50.992;6.798;2023-04-03T08:46:26;6.88;;;3.15;;
2177;SDS011;1095;50.992;6.798;2023-04-03T08:49:02;6.05;;;2.97;;
2177;SDS011;1095;50.992;6.798;2023-04-03T08:51:37;3.97;;;2.67;;
2177;SDS011;1095;50.992;6.798;2023-04-03T08:54:14;8.82;;;3.00;;
2177;SDS011;1095;50.992;6.798;2023-04-03T08:56:51;5.65;;;3.22;;
2177;SDS011;1095;50.992;6.798;2023-04-03T08:59:19;6.00;;;3.28;;
2177;SDS011;1095;50.992;6.798;2023-04-03T09:01:52;5.65;;;3.20;;
2177;SDS011;1095;50.992;6.798;2023-04-03T09:04:20;12.07;;;4.82;;
2177;SDS011;1095;50.992;6.798;2023-04-03T09:06:48;6.97;;;3.25;;
2177;SDS011;1095;50.992;6.798;2023-04-03T09:09:24;6.47;;;3.30;;
2177;SDS011;1095;50.992;6.798;2023-04-03T09:12:06;5.75;;;3.20;;
2177;SDS011;1095;50.992;6.798;2023-04-03T09:14:43;6.57;;;3.60;;
2177;SDS011;1095;50.992;6.798;2023-04-03T09:17:26;4.55;;;2.70;;
2177;SDS011;1095;50.992;6.798;2023-04-03T09:20:06;6.40;;;3.20;;
2177;SDS011;1095;50.992;6.798;2023-04-03T09:22:42;4.45;;;2.80;;
2177;SDS011;1095;50.992;6.798;2023-04-03T09:25:12;4.45;;;3.45;;
2177;SDS011;1095;50.992;6.798;2023-04-03T09:27:40;6.40;;;3.28;;
2177;SDS011;1095;50.992;6.798;2023-04-03T09:30:08;5.10;;;3.28;;
2177;SDS011;1095;50.992;6.798;2023-04-03T09:32:40;7.30;;;3.47;;
2177;SDS011;1095;50.992;6.798;2023-04-03T09:35:15;6.00;;;3.15;;
2177;SDS011;1095;50.992;6.798;2023-04-03T09:37:45;4.75;;;2.50;;
2177;SDS011;1095;50.992;6.798;2023-04-03T09:40:31;6.57;;;2.78;;
2177;SDS011;1095;50.992;6.798;2023-04-03T09:43:01;6.70;;;2.85;;
2177;SDS011;1095;50.992;6.798;2023-04-03T09:45:45;5.78;;;2.75;;
2177;SDS011;1095;50.992;6.798;2023-04-03T09:48:15;8.77;;;3.67;;
2177;SDS011;1095;50.992;6.798;2023-04-03T09:50:54;5.32;;;3.10;;
2177;SDS011;1095;50.992;6.798;2023-04-03T09:53:30;4.72;;;2.50;;
2177;SDS011;1095;50.992;6.798;2023-04-03T09:56:03;4.07;;;2.45;;
2177;SDS011;1095;50.992;6.798;2023-04-03T09:58:46;5.90;;;2.83;;
2177;SDS011;1095;50.992;6.798;2023-04-03T10:01:22;4.60;;;2.90;;
2177;SDS011;1095;50.992;6.798;2023-04-03T10:04:03;6.53;;;3.00;;
2177;SDS011;1095;50.992;6.798;2023-04-03T10:06:32;6.53;;;3.30;;
2177;SDS011;1095;50.992;6.798;2023-04-03T10:09:02;6.20;;;2.65;;
2177;SDS011;1095;50.992;6.798;2023-04-03T10:11:34;4.15;;;3.22;;
2177;SDS011;1095;50.992;6.798;2023-04-03T10:14:01;3.92;;;2.53;;
2177;SDS011;1095;50.992;6.798;2023-04-03T10:16:32;5.22;;;3.03;;
2177;SDS011;1095;50.992;6.798;2023-04-03T10:19:14;8.43;;;3.85;;
2177;SDS011;1095;50.992;6.798;2023-04-03T10:21:53;6.75;;;3.92;;
2177;SDS011;1095;50.992;6.798;2023-04-03T10:24:25;6.25;;;3.05;;
2177;SDS011;1095;50.992;6.798;2023-04-03T10:27:01;5.55;;;3.03;;
2177;SDS011;1095;50.992;6.798;2023-04-03T10:29:38;3.22;;;2.38;;
2177;SDS011;1095;50.992;6.798;2023-04-03T10:35:11;6.03;;;3.03;;
2177;SDS011;1095;50.992;6.798;2023-04-03T10:37:50;5.63;;;3.08;;
2177;SDS011;1095;50.992;6.798;2023-04-03T10:40:29;5.50;;;2.78;;
2177;SDS011;1095;50.992;6.798;2023-04-03T10:43:04;5.72;;;2.95;;
2177;SDS011;1095;50.992;6.798;2023-04-03T10:48:40;8.27;;;3.00;;
2177;SDS011;1095;50.992;6.798;2023-04-03T10:51:22;4.38;;;3.40;;
2177;SDS011;1095;50.992;6.798;2023-04-03T10:53:54;8.40;;;3.50;;
2177;SDS011;1095;50.992;6.798;2023-04-03T10:56:30;5.30;;;3.03;;
2177;SDS011;1095;50.992;6.798;2023-04-03T10:59:05;5.50;;;3.00;;
2177;SDS011;1095;50.992;6.798;2023-04-03T11:01:42;4.30;;;2.53;;
2177;SDS011;1095;50.992;6.798;2023-04-03T11:04:12;5.18;;;2.88;;
2177;SDS011;1095;50.992;6.798;2023-04-03T11:06:42;4.50;;;3.03;;
2177;SDS011;1095;50.992;6.798;2023-04-03T11:09:16;5.20;;;2.90;;
2177;SDS011;1095;50.992;6.798;2023-04-03T11:11:48;9.95;;;5.18;;
2177;SDS011;1095;50.992;6.798;2023-04-03T11:14:21;5.07;;;3.08;;
2177;SDS011;1095;50.992;6.798;2023-04-03T11:16:55;5.45;;;2.80;;
2177;SDS011;1095;50.992;6.798;2023-04-03T11:19:34;5.65;;;2.83;;
2177;SDS011;1095;50.992;6.798;2023-04-03T11:22:08;4.10;;;2.55;;
2177;SDS011;1095;50.992;6.798;2023-04-03T11:24:42;9.15;;;3.00;;
2177;SDS011;1095;50.992;6.798;2023-04-03T11:27:15;5.65;;;3.67;;
2177;SDS011;1095;50.992;6.798;2023-04-03T11:29:48;5.35;;;2.95;;
2177;SDS011;1095;50.992;6.798;2023-04-03T11:32:24;5.05;;;2.75;;
2177;SDS011;1095;50.992;6.798;2023-04-03T11:35:02;5.30;;;2.58;;
2177;SDS011;1095;50.992;6.798;2023-04-03T11:37:34;8.05;;;2.78;;
2177;SDS011;1095;50.992;6.798;2023-04-03T11:40:04;5.85;;;2.63;;
2177;SDS011;1095;50.992;6.798;2023-04-03T11:42:37;4.43;;;2.63;;
2177;SDS011;1095;50.992;6.798;2023-04-03T11:45:24;4.80;;;2.78;;
2177;SDS011;1095;50.992;6.798;2023-04-03T11:47:57;17.55;;;4.38;;
2177;SDS011;1095;50.992;6.798;2023-04-03T11:50:32;5.57;;;2.90;;
2177;SDS011;1095;50.992;6.798;2023-04-03T11:53:25;6.20;;;2.90;;
2177;SDS011;1095;50.992;6.798;2023-04-03T11:56:01;7.78;;;2.95;;
2177;SDS011;1095;50.992;6.798;2023-04-03T11:58:30;5.65;;;2.88;;
2177;SDS011;1095;50.992;6.798;2023-04-03T12:01:00;5.22;;;2.50;;
2177;SDS011;1095;50.992;6.798;2023-04-03T12:12:55;4.72;;;2.53;;
2177;SDS011;1095;50.992;6.798;2023-04-03T12:18:37;3.95;;;2.50;;
2177;SDS011;1095;50.992;6.798;2023-04-03T12:21:07;6.50;;;2.75;;
2177;SDS011;1095;50.992;6.798;2023-04-03T12:23:35;8.20;;;2.47;;
2177;SDS011;1095;50.992;6.798;2023-04-03T12:26:19;3.15;;;2.10;;
2177;SDS011;1095;50.992;6.798;2023-04-03T12:28:48;3.40;;;2.25;;
2177;SDS011;1095;50.992;6.798;2023-04-03T12:31:17;4.50;;;2.05;;
2177;SDS011;1095;50.992;6.798;2023-04-03T12:36:47;5.47;;;2.17;;
2177;SDS011;1095;50.992;6.798;2023-04-03T12:39:25;4.95;;;2.25;;
2177;SDS011;1095;50.992;6.798;2023-04-03T12:42:14;4.38;;;2.17;;
2177;SDS011;1095;50.992;6.798;2023-04-03T12:44:53;2.92;;;1.90;;
2177;SDS011;1095;50.992;6.798;2023-04-03T12:47:27;3.28;;;2.13;;
2177;SDS011;1095;50.992;6.798;2023-04-03T12:49:59;3.13;;;2.10;;
2177;SDS011;1095;50.992;6.798;2023-04-03T12:52:33;5.10;;;1.83;;
2177;SDS011;1095;50.992;6.798;2023-04-03T12:55:11;2.47;;;1.95;;
2177;SDS011;1095;50.992;6.798;2023-04-03T12:57:45;5.13;;;2.28;;
2177;SDS011;1095;50.992;6.798;2023-04-03T13:00:27;3.03;;;2.42;;
2177;SDS011;1095;50.992;6.798;2023-04-03T13:03:01;2.55;;;1.75;;
2177;SDS011;1095;50.992;6.798;2023-04-03T13:05:33;3.17;;;2.05;;
2177;SDS011;1095;50.992;6.798;2023-04-03T13:08:04;4.68;;;2.45;;
2177;SDS011;1095;50.992;6.798;2023-04-03T13:10:43;2.20;;;1.83;;
2177;SDS011;1095;50.992;6.798;2023-04-03T13:13:17;2.40;;;1.95;;
2177;SDS011;1095;50.992;6.798;2023-04-03T13:15:48;3.85;;;2.67;;
2177;SDS011;1095;50.992;6.798;2023-04-03T13:18:24;5.03;;;2.60;;
2177;SDS011;1095;50.992;6.798;2023-04-03T13:23:30;4.07;;;2.20;;
2177;SDS011;1095;50.992;6.798;2023-04-03T13:25:58;2.03;;;1.83;;
2177;SDS011;1095;50.992;6.798;2023-04-03T13:28:28;3.55;;;2.38;;
2177;SDS011;1095;50.992;6.798;2023-04-03T13:31:03;2.85;;;2.00;;
2177;SDS011;1095;50.992;6.798;2023-04-03T13:33:35;4.85;;;2.40;;
2177;SDS011;1095;50.992;6.798;2023-04-03T13:36:06;4.63;;;2.45;;
2177;SDS011;1095;50.992;6.798;2023-04-03T13:38:37;4.82;;;2.33;;
2177;SDS011;1095;50.992;6.798;2023-04-03T13:41:04;3.08;;;2.33;;
2177;SDS011;1095;50.992;6.798;2023-04-03T13:43:47;4.22;;;2.20;;
2177;SDS011;1095;50.992;6.798;2023-04-03T13:46:24;3.70;;;2.45;;
2177;SDS011;1095;50.992;6.798;2023-04-03T13:48:53;3.22;;;2.33;;
2177;SDS011;1095;50.992;6.798;2023-04-03T13:51:24;4.20;;;2.38;;
2177;SDS011;1095;50.992;6.798;2023-04-03T13:53:53;3.28;;;2.65;;
2177;SDS011;1095;50.992;6.798;2023-04-03T13:56:27;3.60;;;2.20;;
2177;SDS011;1095;50.992;6.798;2023-04-03T13:58:59;4.78;;;2.30;;
2177;SDS011;1095;50.992;6.798;2023-04-03T14:01:37;3.63;;;2.22;;
2177;SDS011;1095;50.992;6.798;2023-04-03T14:04:12;3.90;;;2.30;;
2177;SDS011;1095;50.992;6.798;2023-04-03T14:06:43;4.10;;;2.40;;
2177;SDS011;1095;50.992;6.798;2023-04-03T14:09:11;4.20;;;2.38;;
2177;SDS011;1095;50.992;6.798;2023-04-03T14:11:39;3.55;;;2.47;;
2177;SDS011;1095;50.992;6.798;2023-04-03T14:14:10;4.72;;;2.97;;
2177;SDS011;1095;50.992;6.798;2023-04-03T14:16:41;3.95;;;2.22;;
2177;SDS011;1095;50.992;6.798;2023-04-03T14:19:17;5.22;;;2.80;;
2177;SDS011;1095;50.992;6.798;2023-04-03T14:21:47;4.13;;;2.72;;
2177;SDS011;1095;50.992;6.798;2023-04-03T14:24:16;3.50;;;2.40;;
2177;SDS011;1095;50.992;6.798;2023-04-03T14:26:44;5.68;;;2.55;;
2177;SDS011;1095;50.992;6.798;2023-04-03T14:29:12;6.50;;;2.92;;
2177;SDS011;1095;50.992;6.798;2023-04-03T14:31:39;4.88;;;2.28;;
2177;SDS011;1095;50.992;6.798;2023-04-03T14:34:07;3.05;;;2.15;;
2177;SDS011;1095;50.992;6.798;2023-04-03T14:36:36;5.68;;;2.63;;
2177;SDS011;1095;50.992;6.798;2023-04-03T14:39:04;6.07;;;2.78;;
2177;SDS011;1095;50.992;6.798;2023-04-03T14:41:33;4.53;;;2.60;;
2177;SDS011;1095;50.992;6.798;2023-04-03T14:44:01;5.07;;;2.80;;
2177;SDS011;1095;50.992;6.798;2023-04-03T14:46:30;5.65;;;2.92;;
2177;SDS011;1095;50.992;6.798;2023-04-03T14:48:58;5.45;;;3.08;;
2177;SDS011;1095;50.992;6.798;2023-04-03T14:51:25;4.68;;;2.63;;
2177;SDS011;1095;50.992;6.798;2023-04-03T14:53:53;4.05;;;2.60;;
2177;SDS011;1095;50.992;6.798;2023-04-03T14:56:23;5.82;;;2.78;;
2177;SDS011;1095;50.992;6.798;2023-04-03T14:58:52;4.90;;;3.13;;
2177;SDS011;1095;50.992;6.798;2023-04-03T15:01:21;4.25;;;2.90;;
2177;SDS011;1095;50.992;6.798;2023-04-03T15:03:48;3.22;;;2.15;;
2177;SDS011;1095;50.992;6.798;2023-04-03T15:06:16;5.53;;;2.85;;
2177;SDS011;1095;50.992;6.798;2023-04-03T15:08:46;5.93;;;2.35;;
2177;SDS011;1095;50.992;6.798;2023-04-03T15:11:14;6.22;;;2.80;;
2177;SDS011;1095;50.992;6.798;2023-04-03T15:13:42;5.25;;;2.53;;
2177;SDS011;1095;50.992;6.798;2023-04-03T15:16:12;5.35;;;2.72;;
2177;SDS011;1095;50.992;6.798;2023-04-03T15:18:42;4.00;;;2.92;;
2177;SDS011;1095;50.992;6.798;2023-04-03T15:21:10;5.00;;;2.97;;
2177;SDS011;1095;50.992;6.798;2023-04-03T15:23:37;3.08;;;2.40;;
2177;SDS011;1095;50.992;6.798;2023-04-03T15:26:03;5.32;;;3.10;;
2177;SDS011;1095;50.992;6.798;2023-04-03T15:28:31;4.25;;;2.75;;
2177;SDS011;1095;50.992;6.798;2023-04-03T15:31:02;7.22;;;3.28;;
2177;SDS011;1095;50.992;6.798;2023-04-03T15:33:29;4.57;;;2.67;;
2177;SDS011;1095;50.992;6.798;2023-04-03T15:35:57;4.72;;;2.70;;
2177;SDS011;1095;50.992;6.798;2023-04-03T15:38:24;4.05;;;2.70;;
2177;SDS011;1095;50.992;6.798;2023-04-03T15:40:51;5.55;;;2.75;;
2177;SDS011;1095;50.992;6.798;2023-04-03T15:43:17;6.15;;;3.05;;
2177;SDS011;1095;50.992;6.798;2023-04-03T15:45:44;5.97;;;3.17;;
2177;SDS011;1095;50.992;6.798;2023-04-03T15:48:15;6.97;;;3.47;;